Flight Track Log - Related Links

Times and Time Zones

All times are in EDT time to prevent confusion due to time zone crossing. See the N147SW flight status page for this flight to view local times or setup timezone preferences in your user account.

Time Position Orientation Groundspeed Altitude Reporting Facility
EDT Latitude Longitude Course Direction KTS MPH feet Rate Location/Type
Wed 10:18:26 AM 28.0000 -82.7167 344° North 256 295 3,600  Level Tampa TRACON
Wed 10:20:38 AM 28.1331 -82.7608 344° North 249 287 10,800 2,750 Climbing Jacksonville Center
Wed 10:21:38 AM 28.2186 -82.7253 20° North 255 293 12,400 2,700 Climbing Jacksonville Center
Wed 10:22:38 AM 28.3022 -82.7700 335° Northwest 302 348 16,200 3,350 Climbing Jacksonville Center
Wed 10:23:38 AM 28.3794 -82.8289 326° Northwest 308 354 19,100 1,900 Climbing Jacksonville Center
Wed 10:24:38 AM 28.4650 -82.8903 328° Northwest 339 390 20,000 450 Climbing Jacksonville Center
Wed 10:25:38 AM 28.5528 -82.9564 327° Northwest 375 432 20,000  Level Jacksonville Center
Wed 10:26:38 AM 28.6550 -83.0322 327° Northwest 418 481 20,000  Level Jacksonville Center
Wed 10:27:38 AM 28.7569 -83.1058 328° Northwest 434 499 20,000  Level Jacksonville Center
Wed 10:28:38 AM 28.8569 -83.1819 326° Northwest 434 499 20,000  Level Jacksonville Center
Wed 10:29:38 AM 28.9611 -83.2628 326° Northwest 439 505 20,000  Level Jacksonville Center
Wed 10:30:38 AM 29.0653 -83.3392 327° Northwest 439 505 20,000  Level Jacksonville Center
Wed 10:31:38 AM 29.1694 -83.4158 327° Northwest 439 505 20,000  Level Jacksonville Center
Wed 10:32:38 AM 29.2817 -83.5019 326° Northwest 439 505 20,000  Level Jacksonville Center
Wed 10:33:38 AM 29.3858 -83.5814 326° Northwest 444 511 20,000 -400 Level Jacksonville Center
Wed 10:34:38 AM 29.4897 -83.6561 328° Northwest 444 511 19,200 -1,250 Descending Jacksonville Center
Wed 10:35:38 AM 29.5956 -83.7333 328° Northwest 444 511 17,500 -1,884 Descending Jacksonville Center
Wed 10:36:39 AM 29.6994 -83.8083 328° Northwest 444 511 15,400 -2,150 Descending Jacksonville Center
Wed 10:37:38 AM 29.7972 -83.8786 328° Northwest 431 496 13,200 -2,168 Descending Jacksonville Center
Wed 10:38:38 AM 29.8717 -83.9706 313° West 414 476 11,100 -1,091 Descending Jacksonville Center
Wed 10:39:39 AM 29.9417 -84.0600 312° West 387 445 11,000 -50 Descending Jacksonville Center
Wed 10:40:38 AM 30.0439 -84.0756 352° North 346 398 11,000 -756 Level Jacksonville Center
Wed 10:41:38 AM 30.1442 -84.0817 357° North 354 407 9,500 -2,000 Descending Jacksonville Center
Wed 10:42:38 AM 30.1808 -84.1614 298° West 272 313 7,000 -2,450 Descending Jacksonville Center
Wed 10:43:38 AM 30.1842 -84.2503 273° West 256 295 4,600 -1,850 Descending Jacksonville Center
Wed 10:44:38 AM 30.1958 -84.3225 281° West 261 300 3,300 3,174 Descending Jacksonville Center
Wed 10:45:39 AM 30.2158 -84.4022 286° West 261 300 11,000 3,818 Climbing Jacksonville Center
Wed 10:46:39 AM 30.2358 -84.4794 287° West 261 300 11,000  Level Jacksonville Center
Wed 10:48:00 AM 30.3361 -84.3994 North  Level Estimated
Wed 10:55:00 AM 30.3833 -84.3500 North  Level FlightAware Approximate

Login

Don't have an account? Register now (free) for customized features, flight alerts, and more!